createdAt,value
2019-02-18T00:00:08.040Z,3.42
2019-02-18T00:02:37.483Z,3.43
2019-02-18T00:05:07.044Z,3.42
2019-02-18T00:07:36.404Z,3.25
2019-02-18T00:10:06.217Z,3.38
2019-02-18T00:12:35.667Z,3.40
2019-02-18T00:15:05.311Z,3.37
2019-02-18T00:17:34.698Z,3.36
2019-02-18T00:20:04.032Z,3.36
2019-02-18T00:22:33.379Z,3.31
2019-02-18T00:25:02.760Z,3.21
2019-02-18T00:27:32.163Z,3.29
2019-02-18T00:32:29.732Z,3.22
2019-02-18T00:34:59.121Z,3.27
2019-02-18T00:37:28.481Z,3.32
2019-02-18T00:39:57.779Z,3.27
2019-02-18T00:42:27.184Z,3.34
2019-02-18T00:44:56.578Z,3.30
2019-02-18T00:47:25.918Z,3.36
2019-02-18T00:49:55.295Z,3.35
2019-02-18T00:52:24.707Z,3.46
2019-02-18T00:54:54.066Z,3.40
2019-02-18T00:57:23.775Z,3.44
2019-02-18T00:59:53.166Z,3.35
2019-02-18T01:02:22.532Z,3.33
2019-02-18T01:04:51.960Z,3.20
2019-02-18T01:07:21.417Z,3.18
2019-02-18T01:09:50.784Z,3.01
2019-02-18T01:12:20.184Z,3.05
2019-02-18T01:14:49.592Z,2.91
2019-02-18T01:17:19.016Z,2.88
2019-02-18T01:19:48.368Z,2.91
2019-02-18T01:22:17.756Z,2.98
2019-02-18T01:24:47.102Z,2.87
2019-02-18T01:27:16.477Z,2.79
2019-02-18T01:29:45.873Z,2.85
2019-02-18T01:32:15.241Z,2.88
2019-02-18T01:34:44.601Z,2.85
2019-02-18T01:37:13.965Z,2.76
2019-02-18T01:39:43.304Z,2.90
2019-02-18T01:42:12.768Z,2.92
2019-02-18T01:44:42.108Z,2.88
2019-02-18T01:47:11.495Z,2.88
2019-02-18T01:49:40.837Z,2.87
2019-02-18T01:52:10.213Z,2.86
2019-02-18T01:54:39.564Z,2.84
2019-02-18T01:57:08.945Z,2.92
2019-02-18T01:59:38.739Z,2.94
2019-02-18T02:02:08.125Z,3.02
2019-02-18T02:04:37.500Z,2.98
2019-02-18T02:07:06.860Z,3.03
2019-02-18T02:09:36.245Z,3.13
2019-02-18T02:12:05.624Z,3.09
2019-02-18T02:14:35.027Z,3.06
2019-02-18T02:17:04.408Z,3.13
2019-02-18T02:19:33.771Z,3.11
2019-02-18T02:22:03.103Z,3.06
2019-02-18T02:24:32.482Z,3.03
2019-02-18T02:27:01.904Z,3.02
2019-02-18T02:29:31.633Z,3.02
2019-02-18T02:32:00.995Z,2.99
2019-02-18T02:34:30.344Z,2.95
2019-02-18T02:36:59.700Z,2.92
2019-02-18T02:39:30.122Z,2.93
2019-02-18T02:41:59.590Z,2.94
2019-02-18T02:44:29.073Z,2.92
2019-02-18T02:46:58.493Z,2.91
2019-02-18T02:49:27.960Z,2.80
2019-02-18T02:51:57.438Z,2.90
2019-02-18T02:54:26.872Z,2.87
2019-02-18T02:56:56.252Z,2.86
2019-02-18T02:59:25.631Z,2.79
2019-02-18T03:01:54.996Z,2.78
2019-02-18T03:04:24.336Z,2.75
2019-02-18T03:06:53.703Z,2.78
2019-02-18T03:09:23.130Z,2.76
2019-02-18T03:11:52.472Z,2.75
2019-02-18T03:14:21.831Z,2.74
2019-02-18T03:16:51.206Z,2.90
2019-02-18T03:19:20.550Z,2.89
2019-02-18T03:21:49.948Z,2.84
2019-02-18T03:24:19.329Z,2.70
2019-02-18T03:26:48.744Z,2.64
2019-02-18T03:29:59.110Z,2.63
2019-02-18T03:32:30.415Z,2.53
2019-02-18T03:35:00.797Z,2.26
2019-02-18T03:37:30.449Z,2.21
2019-02-18T03:39:59.808Z,2.05
2019-02-18T03:42:29.173Z,1.95
2019-02-18T03:44:58.588Z,1.84
2019-02-18T03:47:27.966Z,1.74
2019-02-18T03:49:57.364Z,1.60
2019-02-18T03:52:26.710Z,1.46
2019-02-18T03:54:56.086Z,1.34
2019-02-18T03:57:25.582Z,1.25
2019-02-18T03:59:55.094Z,1.24
2019-02-18T04:02:24.457Z,1.10
2019-02-18T04:04:53.866Z,1.05
2019-02-18T04:07:23.252Z,1.01
2019-02-18T04:09:52.632Z,1.11
2019-02-18T04:12:22.020Z,0.98
2019-02-18T04:14:51.404Z,1.02
2019-02-18T04:17:20.842Z,1.13
2019-02-18T04:19:50.176Z,1.21
2019-02-18T04:22:19.553Z,1.17
2019-02-18T04:24:48.947Z,1.14
2019-02-18T04:27:18.336Z,1.27
2019-02-18T04:29:47.760Z,1.30
2019-02-18T04:32:17.164Z,1.39
2019-02-18T04:34:46.515Z,1.33
2019-02-18T04:37:15.990Z,1.46
2019-02-18T04:39:45.332Z,1.51
2019-02-18T04:42:14.753Z,1.51
2019-02-18T04:44:44.147Z,1.57
2019-02-18T04:47:13.535Z,1.65
2019-02-18T04:49:42.945Z,1.63
2019-02-18T04:52:12.404Z,1.61
2019-02-18T04:54:41.787Z,1.53
2019-02-18T04:57:11.145Z,1.65
2019-02-18T04:59:40.517Z,1.67
2019-02-18T05:02:09.905Z,1.67
2019-02-18T05:04:39.270Z,1.72
2019-02-18T05:07:09.469Z,1.70
2019-02-18T05:09:39.910Z,1.70
2019-02-18T05:12:09.683Z,1.75
2019-02-18T05:14:39.055Z,1.71
2019-02-18T05:17:08.420Z,1.66
2019-02-18T05:19:37.802Z,1.62
2019-02-18T05:22:07.214Z,1.65
2019-02-18T05:24:36.605Z,1.60
2019-02-18T05:27:05.935Z,1.53
2019-02-18T05:29:35.286Z,1.51
2019-02-18T05:32:04.669Z,1.57
2019-02-18T05:34:33.977Z,1.63
2019-02-18T05:37:03.403Z,1.60
2019-02-18T05:39:32.775Z,1.56
2019-02-18T05:42:02.244Z,1.56
2019-02-18T05:44:31.618Z,1.61
2019-02-18T05:47:01.015Z,1.59
2019-02-18T05:49:30.402Z,1.51
2019-02-18T05:51:59.783Z,1.45
2019-02-18T05:54:29.117Z,1.27
2019-02-18T05:56:58.477Z,1.37
2019-02-18T05:59:27.817Z,1.30
2019-02-18T06:01:57.172Z,1.17
2019-02-18T06:04:26.537Z,1.17
2019-02-18T06:06:55.932Z,1.10
2019-02-18T06:09:29.837Z,1.17
2019-02-18T06:11:56.402Z,1.11
2019-02-18T06:14:25.806Z,1.12
2019-02-18T06:16:55.224Z,1.14
2019-02-18T06:19:24.617Z,1.12
2019-02-18T06:21:53.943Z,1.05
2019-02-18T06:24:23.334Z,1.04
2019-02-18T06:26:52.693Z,1.11
2019-02-18T06:29:22.133Z,1.11
2019-02-18T06:31:51.517Z,1.17
2019-02-18T06:34:20.906Z,1.26
2019-02-18T06:36:50.312Z,1.26
2019-02-18T06:39:19.686Z,1.33
2019-02-18T06:41:49.116Z,1.37
2019-02-18T06:44:21.408Z,1.36
2019-02-18T06:46:53.050Z,1.38
2019-02-18T06:49:24.924Z,1.53
2019-02-18T06:51:54.294Z,1.64
2019-02-18T06:54:23.673Z,1.68
2019-02-18T06:57:08.928Z,1.88
2019-02-18T06:59:45.436Z,1.90
2019-02-18T07:02:25.121Z,1.82
2019-02-18T07:05:13.507Z,1.88
2019-02-18T07:08:04.673Z,1.92
2019-02-18T07:10:59.280Z,2.08
2019-02-18T07:13:28.670Z,2.19
2019-02-18T07:15:58.040Z,2.28
2019-02-18T07:18:27.508Z,2.34
2019-02-18T07:20:56.894Z,2.41
2019-02-18T07:23:26.275Z,2.51
2019-02-18T07:25:55.676Z,2.60
2019-02-18T07:28:25.027Z,2.55
2019-02-18T07:30:54.416Z,2.68
2019-02-18T07:33:23.774Z,2.80
2019-02-18T07:35:53.113Z,2.79
2019-02-18T07:38:22.969Z,2.99
2019-02-18T07:40:52.424Z,3.16
2019-02-18T07:43:23.138Z,3.29
2019-02-18T07:45:52.758Z,3.43
2019-02-18T07:48:22.147Z,3.55
2019-02-18T07:50:51.536Z,3.60
2019-02-18T07:53:21.039Z,3.79
2019-02-18T07:55:50.463Z,3.89
2019-02-18T07:58:19.871Z,4.00
2019-02-18T08:00:49.346Z,4.03
2019-02-18T08:03:18.872Z,3.98
2019-02-18T08:05:48.281Z,4.05
2019-02-18T08:08:17.740Z,4.26
2019-02-18T08:10:47.118Z,4.27
2019-02-18T08:13:16.496Z,4.28
2019-02-18T08:15:45.855Z,4.42
2019-02-18T08:18:15.259Z,4.56
2019-02-18T08:20:44.731Z,4.65
2019-02-18T08:23:14.090Z,4.74
2019-02-18T08:25:43.499Z,4.83
2019-02-18T08:28:12.834Z,4.83
2019-02-18T08:30:42.222Z,4.95
2019-02-18T08:33:11.781Z,5.02
2019-02-18T08:35:41.202Z,5.12
2019-02-18T08:38:10.680Z,5.24
2019-02-18T08:40:40.107Z,5.33
2019-02-18T08:43:09.488Z,5.49
2019-02-18T08:45:38.858Z,5.58
2019-02-18T08:48:08.304Z,5.68
2019-02-18T08:50:37.747Z,5.71
2019-02-18T08:53:07.137Z,5.69
2019-02-18T08:55:36.565Z,5.78
2019-02-18T08:58:06.028Z,6.04
2019-02-18T09:00:35.423Z,6.15
2019-02-18T09:03:04.891Z,6.37
2019-02-18T09:05:34.308Z,6.39
2019-02-18T09:08:03.691Z,6.60
2019-02-18T09:10:34.100Z,6.77
2019-02-18T09:13:03.637Z,6.78
2019-02-18T09:15:33.058Z,6.91
2019-02-18T09:18:02.462Z,6.97
2019-02-18T09:20:31.915Z,7.07
2019-02-18T09:23:08.046Z,7.27
2019-02-18T09:25:43.366Z,7.35
2019-02-18T09:28:12.371Z,7.43
2019-02-18T09:30:43.754Z,7.43
2019-02-18T09:33:13.248Z,7.48
2019-02-18T09:35:42.652Z,7.55
2019-02-18T09:38:12.427Z,7.68
2019-02-18T09:40:44.663Z,7.78
2019-02-18T09:43:12.970Z,8.10
2019-02-18T09:45:42.485Z,8.28
2019-02-18T09:48:11.872Z,8.46
2019-02-18T09:50:41.334Z,8.74
2019-02-18T09:53:10.817Z,9.04
2019-02-18T09:55:40.241Z,9.53
2019-02-18T09:58:09.660Z,10.29
2019-02-18T10:00:39.054Z,10.69
2019-02-18T10:03:08.478Z,11.39
2019-02-18T10:05:37.844Z,11.97
2019-02-18T10:08:07.188Z,12.59
2019-02-18T10:10:36.605Z,12.90
2019-02-18T10:13:06.189Z,13.15
2019-02-18T10:15:35.591Z,13.24
2019-02-18T10:18:05.027Z,12.87
2019-02-18T10:20:34.591Z,13.04
2019-02-18T10:23:04.017Z,13.04
2019-02-18T10:25:33.515Z,13.66
2019-02-18T10:28:02.888Z,13.95
2019-02-18T10:30:32.244Z,14.18
2019-02-18T10:33:01.592Z,14.39
2019-02-18T10:35:31.036Z,14.20
2019-02-18T10:38:00.751Z,14.81
2019-02-18T10:40:30.169Z,14.62
2019-02-18T10:42:59.611Z,14.62
2019-02-18T10:45:28.980Z,15.03
2019-02-18T10:47:58.368Z,15.19
2019-02-18T10:50:27.758Z,15.54
2019-02-18T10:52:57.239Z,15.73
2019-02-18T10:55:26.606Z,15.84
2019-02-18T10:57:56.010Z,15.71
2019-02-18T11:00:25.480Z,15.63
2019-02-18T11:02:54.851Z,15.47
2019-02-18T11:05:24.218Z,15.82
2019-02-18T11:07:53.743Z,15.23
2019-02-18T11:10:23.158Z,15.50
2019-02-18T11:12:52.577Z,15.66
2019-02-18T11:15:21.945Z,15.60
2019-02-18T11:17:51.304Z,15.92
2019-02-18T11:20:20.709Z,16.42
2019-02-18T11:22:50.079Z,16.82
2019-02-18T11:25:19.464Z,16.22
2019-02-18T11:27:48.874Z,16.76
2019-02-18T11:30:18.737Z,16.76
2019-02-18T11:32:48.096Z,16.65
2019-02-18T11:35:17.455Z,17.31
2019-02-18T11:37:46.908Z,17.45
2019-02-18T11:40:16.302Z,17.95
2019-02-18T11:42:45.682Z,18.25
2019-02-18T11:45:16.271Z,18.02
2019-02-18T11:47:45.611Z,17.86
2019-02-18T11:50:15.124Z,17.91
2019-02-18T11:52:44.548Z,17.84
2019-02-18T11:55:14.023Z,17.91
2019-02-18T11:57:43.777Z,18.57
2019-02-18T12:00:13.413Z,18.44
2019-02-18T12:02:42.817Z,18.51
2019-02-18T12:05:12.271Z,18.46
2019-02-18T12:07:41.633Z,18.56
2019-02-18T12:10:11.032Z,18.08
2019-02-18T12:12:40.861Z,18.41
2019-02-18T12:15:11.689Z,18.46
2019-02-18T12:17:41.070Z,18.57
2019-02-18T12:20:12.117Z,18.80
2019-02-18T12:22:41.615Z,19.00
2019-02-18T12:25:11.430Z,18.55
2019-02-18T12:27:41.168Z,19.37
2019-02-18T12:30:11.776Z,19.59
2019-02-18T12:32:41.148Z,19.59
2019-02-18T12:35:10.574Z,19.69
2019-02-18T12:37:39.970Z,19.84
2019-02-18T12:40:09.749Z,19.90
2019-02-18T12:42:41.937Z,20.34
2019-02-18T12:45:10.750Z,19.91
2019-02-18T12:47:40.380Z,20.15
2019-02-18T12:50:10.482Z,20.14
2019-02-18T12:52:39.949Z,20.00
2019-02-18T12:55:09.401Z,20.44
2019-02-18T12:57:39.188Z,21.03
2019-02-18T13:00:09.671Z,20.42
2019-02-18T13:02:44.175Z,20.53
2019-02-18T13:05:10.943Z,20.87
2019-02-18T13:07:40.440Z,21.07
2019-02-18T13:10:10.104Z,21.12
2019-02-18T13:12:39.579Z,20.74
2019-02-18T13:15:10.868Z,21.31
2019-02-18T13:17:42.626Z,20.62
2019-02-18T13:20:11.427Z,20.47
2019-02-18T13:22:40.928Z,20.63
2019-02-18T13:25:10.639Z,20.92
2019-02-18T13:27:40.106Z,20.36
2019-02-18T13:30:12.190Z,20.63
2019-02-18T13:32:41.588Z,20.54
2019-02-18T13:35:11.192Z,21.00
2019-02-18T13:37:40.790Z,20.44
2019-02-18T13:40:10.989Z,20.81
2019-02-18T13:42:40.382Z,21.13
2019-02-18T13:45:09.809Z,21.04
2019-02-18T13:47:39.236Z,21.02
2019-02-18T13:50:09.491Z,21.32
2019-02-18T13:52:38.921Z,21.67
2019-02-18T13:55:08.698Z,21.27
2019-02-18T13:57:38.311Z,21.81
2019-02-18T14:00:12.984Z,21.64
2019-02-18T14:02:42.340Z,21.41
2019-02-18T14:05:11.700Z,20.98
2019-02-18T14:07:41.099Z,21.37
2019-02-18T14:10:10.530Z,20.95
2019-02-18T14:12:40.076Z,20.73
2019-02-18T14:15:10.264Z,20.51
2019-02-18T14:17:39.696Z,20.85
2019-02-18T14:20:11.181Z,20.51
2019-02-18T14:22:40.663Z,20.61
2019-02-18T14:25:10.933Z,20.83
2019-02-18T14:27:40.416Z,20.20
2019-02-18T14:30:11.530Z,20.44
2019-02-18T14:32:40.906Z,20.62
2019-02-18T14:35:10.881Z,20.53
2019-02-18T14:37:40.261Z,20.57
2019-02-18T14:40:12.162Z,20.40
2019-02-18T14:42:41.673Z,20.67
2019-02-18T14:45:11.149Z,19.91
2019-02-18T14:47:40.506Z,20.26
2019-02-18T14:50:10.086Z,20.08
2019-02-18T14:52:39.720Z,19.75
2019-02-18T14:55:10.237Z,20.08
2019-02-18T14:57:39.664Z,20.17
2019-02-18T15:00:27.352Z,19.78
2019-02-18T15:02:57.989Z,19.84
2019-02-18T15:05:27.619Z,19.90
2019-02-18T15:07:57.008Z,19.72
2019-02-18T15:10:26.390Z,19.57
2019-02-18T15:12:55.764Z,19.32
2019-02-18T15:15:25.127Z,19.01
2019-02-18T15:17:54.498Z,18.21
2019-02-18T15:20:24.059Z,18.62
2019-02-18T15:22:53.461Z,17.64
2019-02-18T15:25:22.898Z,17.52
2019-02-18T15:27:52.398Z,17.40
2019-02-18T15:30:22.364Z,17.40
2019-02-18T15:32:51.774Z,17.26
2019-02-18T15:35:21.245Z,16.96
2019-02-18T15:37:50.630Z,16.75
2019-02-18T15:40:20.861Z,16.31
2019-02-18T15:42:50.258Z,15.36
2019-02-18T15:45:19.626Z,15.34
2019-02-18T15:47:49.045Z,15.01
2019-02-18T15:50:18.623Z,14.45
2019-02-18T15:52:48.091Z,14.45
2019-02-18T15:55:17.535Z,14.60
2019-02-18T15:57:46.940Z,14.33
2019-02-18T16:00:19.169Z,14.10
2019-02-18T16:02:48.827Z,13.88
2019-02-18T16:05:18.283Z,13.83
2019-02-18T16:07:47.681Z,13.69
2019-02-18T16:10:17.065Z,13.50
2019-02-18T16:12:50.859Z,13.37
2019-02-18T16:15:17.533Z,13.21
2019-02-18T16:17:47.137Z,13.14
2019-02-18T16:20:16.560Z,13.10
2019-02-18T16:22:45.933Z,12.73
2019-02-18T16:25:19.259Z,12.57
2019-02-18T16:27:48.807Z,12.48
2019-02-18T16:30:18.294Z,12.29
2019-02-18T16:32:47.706Z,12.09
2019-02-18T16:35:17.119Z,12.08
2019-02-18T16:37:46.487Z,11.98
2019-02-18T16:40:17.037Z,12.02
2019-02-18T16:42:46.443Z,12.04
2019-02-18T16:45:15.885Z,11.88
2019-02-18T16:47:45.411Z,11.90
2019-02-18T16:50:14.822Z,11.88
2019-02-18T16:52:44.225Z,11.76
2019-02-18T16:55:13.795Z,11.65
2019-02-18T16:57:43.250Z,11.60
2019-02-18T17:00:23.745Z,11.56
2019-02-18T17:02:53.155Z,11.44
2019-02-18T17:05:22.586Z,11.31
2019-02-18T17:07:52.050Z,11.31
2019-02-18T17:10:21.426Z,11.36
2019-02-18T17:12:50.972Z,11.39
2019-02-18T17:15:20.324Z,11.33
2019-02-18T17:17:49.730Z,11.23
2019-02-18T17:20:19.198Z,11.20
2019-02-18T17:22:48.613Z,11.23
2019-02-18T17:25:18.055Z,11.19
2019-02-18T17:27:47.749Z,11.30
2019-02-18T17:30:17.285Z,11.29
2019-02-18T17:32:46.802Z,11.36
2019-02-18T17:35:16.205Z,11.39
2019-02-18T17:37:45.633Z,11.43
2019-02-18T17:40:15.430Z,11.38
2019-02-18T17:42:45.201Z,11.32
2019-02-18T17:45:16.430Z,11.37
2019-02-18T17:47:47.556Z,11.28
2019-02-18T17:50:17.086Z,11.08
2019-02-18T17:52:47.994Z,10.99
2019-02-18T17:55:17.443Z,10.76
2019-02-18T17:57:46.998Z,10.88
2019-02-18T18:00:18.726Z,10.84
2019-02-18T18:02:48.083Z,10.87
2019-02-18T18:05:18.041Z,10.84
2019-02-18T18:07:47.476Z,10.70
2019-02-18T18:10:17.267Z,10.67
2019-02-18T18:12:46.656Z,10.48
2019-02-18T18:15:16.199Z,10.23
2019-02-18T18:17:45.624Z,10.21
2019-02-18T18:20:15.104Z,10.08
2019-02-18T18:22:44.624Z,10.04
2019-02-18T18:25:14.459Z,10.02
2019-02-18T18:27:43.921Z,9.96
2019-02-18T18:30:13.800Z,9.94
2019-02-18T18:32:45.642Z,10.00
2019-02-18T18:35:15.057Z,10.06
2019-02-18T18:37:44.484Z,10.08
2019-02-18T18:40:14.311Z,9.89
2019-02-18T18:42:43.723Z,9.90
2019-02-18T18:45:15.622Z,9.73
2019-02-18T18:47:45.236Z,9.70
2019-02-18T18:50:16.368Z,9.72
2019-02-18T18:52:46.343Z,9.47
2019-02-18T18:55:15.977Z,9.42
2019-02-18T18:57:47.130Z,9.45
2019-02-18T19:00:20.982Z,9.25
2019-02-18T19:02:50.432Z,9.15
2019-02-18T19:05:22.164Z,9.14
2019-02-18T19:07:52.488Z,9.27
2019-02-18T19:10:21.849Z,9.24
2019-02-18T19:12:51.338Z,9.20
2019-02-18T19:15:20.707Z,9.16
2019-02-18T19:17:50.326Z,9.15
2019-02-18T19:20:21.185Z,9.25
2019-02-18T19:22:59.059Z,9.21
2019-02-18T19:25:30.563Z,9.32
2019-02-18T19:27:59.990Z,9.26
2019-02-18T19:30:30.313Z,9.26
2019-02-18T19:33:00.828Z,9.21
2019-02-18T19:35:30.220Z,9.19
2019-02-18T19:38:00.485Z,9.15
2019-02-18T19:40:29.917Z,9.11
2019-02-18T19:43:03.725Z,9.04
2019-02-18T19:45:33.178Z,8.85
2019-02-18T19:48:07.250Z,8.93
2019-02-18T19:50:36.832Z,8.84
2019-02-18T19:53:06.449Z,8.78
2019-02-18T19:55:35.820Z,8.63
2019-02-18T19:58:07.250Z,8.66
2019-02-18T20:00:36.633Z,8.66
2019-02-18T20:03:06.010Z,8.55
2019-02-18T20:05:35.431Z,8.48
2019-02-18T20:08:04.919Z,8.50
2019-02-18T20:10:34.818Z,8.36
2019-02-18T20:13:04.271Z,8.26
2019-02-18T20:15:34.763Z,8.23
2019-02-18T20:18:04.101Z,8.18
2019-02-18T20:20:33.450Z,8.19
2019-02-18T20:23:02.806Z,8.21
2019-02-18T20:25:32.393Z,8.01
2019-02-18T20:28:01.938Z,8.02
2019-02-18T20:30:32.817Z,7.92
2019-02-18T20:33:05.108Z,7.92
2019-02-18T20:35:37.298Z,7.89
2019-02-18T20:38:06.912Z,7.87
2019-02-18T20:40:36.268Z,7.80
2019-02-18T20:43:05.712Z,7.64
2019-02-18T20:45:35.124Z,7.70
2019-02-18T20:48:04.566Z,7.41
2019-02-18T20:50:33.931Z,7.47
2019-02-18T20:53:03.392Z,7.44
2019-02-18T20:55:32.791Z,7.45
2019-02-18T20:58:03.890Z,7.44
2019-02-18T21:00:33.438Z,7.28
2019-02-18T21:03:02.813Z,7.23
2019-02-18T21:05:32.200Z,7.27
2019-02-18T21:08:01.560Z,7.20
2019-02-18T21:10:30.996Z,7.03
2019-02-18T21:13:00.365Z,7.08
2019-02-18T21:15:29.773Z,7.01
2019-02-18T21:17:59.199Z,6.94
2019-02-18T21:20:28.945Z,6.89
2019-02-18T21:22:58.351Z,6.84
2019-02-18T21:25:27.754Z,6.77
2019-02-18T21:27:57.179Z,6.74
2019-02-18T21:30:26.554Z,6.79
2019-02-18T21:32:55.919Z,6.65
2019-02-18T21:35:25.651Z,6.63
2019-02-18T21:37:54.996Z,6.60
2019-02-18T21:40:26.208Z,6.60
2019-02-18T21:42:56.538Z,6.60
2019-02-18T21:45:25.999Z,6.60
2019-02-18T21:47:55.373Z,6.52
2019-02-18T21:50:25.137Z,6.47
2019-02-18T21:52:54.504Z,6.42
2019-02-18T21:55:23.961Z,6.40
2019-02-18T21:57:53.405Z,6.40
2019-02-18T22:00:23.510Z,6.38
2019-02-18T22:02:52.880Z,6.34
2019-02-18T22:05:22.314Z,6.41
2019-02-18T22:07:51.711Z,6.37
2019-02-18T22:10:21.090Z,6.30
2019-02-18T22:12:50.469Z,6.27
2019-02-18T22:15:19.847Z,6.17
2019-02-18T22:17:49.217Z,6.08
2019-02-18T22:20:18.791Z,6.09
2019-02-18T22:22:48.179Z,6.03
2019-02-18T22:25:17.568Z,5.99
2019-02-18T22:27:46.957Z,5.91
2019-02-18T22:30:16.559Z,5.77
2019-02-18T22:32:45.931Z,5.84
2019-02-18T22:35:15.816Z,5.74
2019-02-18T22:37:45.168Z,5.75
2019-02-18T22:40:14.641Z,5.79
2019-02-18T22:42:44.035Z,5.86
2019-02-18T22:45:13.937Z,5.78
2019-02-18T22:47:43.325Z,5.75
2019-02-18T22:50:12.804Z,5.79
2019-02-18T22:52:42.264Z,5.78
2019-02-18T22:55:11.753Z,5.75
2019-02-18T22:57:41.127Z,5.73
2019-02-18T23:00:25.811Z,5.61
2019-02-18T23:02:55.571Z,5.56
2019-02-18T23:05:24.923Z,5.68
2019-02-18T23:07:54.334Z,5.65
2019-02-18T23:10:24.004Z,5.61
2019-02-18T23:12:53.372Z,5.64
2019-02-18T23:15:22.736Z,5.63
2019-02-18T23:17:52.091Z,5.64
2019-02-18T23:20:21.471Z,5.61
2019-02-18T23:22:50.835Z,5.46
2019-02-18T23:25:20.204Z,5.39
2019-02-18T23:27:49.563Z,5.20
2019-02-18T23:30:18.948Z,5.26
2019-02-18T23:32:48.725Z,5.20
2019-02-18T23:35:18.088Z,5.23
2019-02-18T23:37:47.468Z,5.17
2019-02-18T23:40:16.898Z,5.11
2019-02-18T23:42:46.293Z,5.14
2019-02-18T23:45:15.655Z,5.05
2019-02-18T23:47:45.037Z,4.99
2019-02-18T23:50:14.470Z,5.07
2019-02-18T23:52:43.844Z,5.10
2019-02-18T23:55:13.229Z,5.03
2019-02-18T23:57:42.581Z,4.93
